C. Innovator — 3FGA2 — position and weather

sailwx.info

Track history (hours):
 
Tides and Currents Weather Stations Pressure Air Temp Water Temp Dewpoint Dewpoint Depression Visibility Wind Speed Wind Dir Waves Ship Positions

C. Innovator

Last reported at 2018-Jun-11 07:26 UTC. Time now 2018-Jun-21 06:47 UTC.
Position N 01°31' E 103°02'.
Warning: this ship's position is 9 days out of date.

Length 333 m; draft 11 m.

Type: Ship. MMSI: 373838000.

Date/timePositionNaut miles runAvg speedWind from/ knotsBaromVisibWave heightAir tempDewpointWater temp
2018-Jun-11 07:26N 01°31' E 103°02'714.4
2018-Jun-11 06:57N 01°27' E 103°08'714.6
2018-Jun-11 06:29N 01°23' E 103°13'714.5
2018-Jun-11 06:00N 01°19' E 103°19'714.3
2018-Jun-11 05:30N 01°15' E 103°25'713.0
2018-Jun-11 05:00N 01°13' E 103°31'714.0
2018-Jun-11 04:30N 01°11' E 103°38'611.8
2018-Jun-11 04:00N 01°09' E 103°43'612.6
2018-Jun-11 03:30N 01°11' E 103°49'611.7
2018-Jun-11 03:00N 01°13' E 103°54'611.5
2018-Jun-11 02:30N 01°15' E 103°60'610.9
2018-Jun-11 02:00N 01°17' E 104°05'2 3.3
2018-Jun-11 01:30N 01°19' E 104°06'1 2.6
2018-Jun-11 00:59N 01°19' E 104°04'0 0.1
2018-Jun-11 00:28N 01°19' E 104°04'0 0.1
2018-Jun-10 23:58N 01°19' E 104°04'0 0.0
2018-Jun-10 23:25N 01°19' E 104°04'0 0.0
2018-Jun-10 23:00N 01°19' E 104°04'0 0.0
2018-Jun-10 22:30N 01°19' E 104°04'0 0.1
2018-Jun-10 22:00N 01°19' E 104°04'0 0.1
2018-Jun-10 21:30N 01°19' E 104°04'0 0.0
2018-Jun-10 20:59N 01°19' E 104°04'0 0.0
2018-Jun-10 20:30N 01°19' E 104°04'0 0.0
2018-Jun-10 20:00N 01°19' E 104°04'0 0.1
2018-Jun-10 19:19N 01°19' E 104°04'0 0.0
2018-Jun-10 19:00N 01°19' E 104°04'0 0.0
2018-Jun-10 18:30N 01°19' E 104°04'0 0.0
2018-Jun-10 17:59N 01°19' E 104°04'0 0.0
2018-Jun-10 17:30N 01°19' E 104°04'0 0.0
2018-Jun-10 17:00N 01°19' E 104°04'0 0.1
2018-Jun-10 16:31N 01°19' E 104°04'0 0.0
2018-Jun-10 16:00N 01°19' E 104°04'0 0.0
2018-Jun-10 15:28N 01°19' E 104°04'0 0.2
2018-Jun-10 15:00N 01°19' E 104°04'0 0.1
2018-Jun-10 14:00N 01°19' E 104°04'0 0.1
2018-Jun-10 13:30N 01°19' E 104°04'0 0.2
2018-Jun-10 13:00N 01°19' E 104°04'0 0.1
2018-Jun-10 12:28N 01°19' E 104°04'0 0.1
2018-Jun-10 12:00N 01°19' E 104°04'0 0.1
2018-Jun-10 11:30N 01°19' E 104°04'0 0.0
2018-Jun-10 11:00N 01°19' E 104°04'0 0.2
2018-Jun-10 10:30N 01°19' E 104°04'0 0.1
2018-Jun-10 10:00N 01°19' E 104°04'0 0.0
2018-Jun-10 09:27N 01°19' E 104°04'0 0.0
2018-Jun-10 08:55N 01°19' E 104°04'0 0.0
2018-Jun-10 08:30N 01°19' E 104°04'0 0.0
2018-Jun-10 08:00N 01°19' E 104°04'0 0.0
2018-Jun-10 07:27N 01°19' E 104°04'0 0.0
2018-Jun-10 07:00N 01°19' E 104°04'0 0.5
2018-Jun-10 06:30N 01°19' E 104°04'1 1.9
2018-Jun-10 06:00N 01°19' E 104°05'2 4.0
2018-Jun-10 05:30N 01°17' E 104°07'2 3.0
2018-Jun-10 04:59N 01°17' E 104°08'4 7.3
2018-Jun-10 04:31N 01°17' E 104°12'5 9.5
2018-Jun-10 03:59N 01°18' E 104°17'5 9.3
2018-Jun-10 03:30N 01°20' E 104°21'5 9.2
2018-Jun-10 03:00N 01°23' E 104°24'510.3
2018-Jun-10 02:29N 01°26' E 104°28'1710.1
2018-Jun-10 00:47N 01°40' E 104°39'3 9.9
2018-Jun-10 00:30N 01°42' E 104°40'710.0
2018-Jun-09 23:45N 01°49' E 104°44'3 9.8
2018-Jun-09 23:27N 01°52' E 104°45'4 9.1
2018-Jun-09 22:59N 01°55' E 104°47'5 9.9
2018-Jun-09 22:28N 02°00' E 104°49'5 9.9
2018-Jun-09 22:00N 02°04' E 104°51'6 9.4
2018-Jun-09 21:23N 02°09' E 104°54'4 9.7
2018-Jun-09 20:59N 02°13' E 104°54'610.2
2018-Jun-09 20:24N 02°19' E 104°55'5 9.4
2018-Jun-09 19:54N 02°24' E 104°56'5 9.9
2018-Jun-09 19:22N 02°29' E 104°58'  
Track history (hours):
 
Tides and Currents Weather Stations Pressure Air Temp Water Temp Dewpoint Dewpoint Depression Visibility Wind Speed Wind Dir Waves Ship Positions

C. Innovator

Last reported at 2018-Jun-11 07:26 UTC. Time now 2018-Jun-21 06:47 UTC.
Position N 01°31' E 103°02'.
Warning: this ship's position is 9 days out of date.

Length 333 m; draft 11 m.

Type: Ship. MMSI: 373838000.

Date/timePositionNaut miles runAvg speedWind from/ knotsBaromVisibWave heightAir tempDewpointWater temp
2018-Jun-11 07:26N 01°31' E 103°02'714.4
2018-Jun-11 06:57N 01°27' E 103°08'714.6
2018-Jun-11 06:29N 01°23' E 103°13'714.5
2018-Jun-11 06:00N 01°19' E 103°19'714.3
2018-Jun-11 05:30N 01°15' E 103°25'713.0
2018-Jun-11 05:00N 01°13' E 103°31'714.0
2018-Jun-11 04:30N 01°11' E 103°38'611.8
2018-Jun-11 04:00N 01°09' E 103°43'612.6
2018-Jun-11 03:30N 01°11' E 103°49'611.7
2018-Jun-11 03:00N 01°13' E 103°54'611.5
2018-Jun-11 02:30N 01°15' E 103°60'610.9
2018-Jun-11 02:00N 01°17' E 104°05'2 3.3
2018-Jun-11 01:30N 01°19' E 104°06'1 2.6
2018-Jun-11 00:59N 01°19' E 104°04'0 0.1
2018-Jun-11 00:28N 01°19' E 104°04'0 0.1
2018-Jun-10 23:58N 01°19' E 104°04'0 0.0
2018-Jun-10 23:25N 01°19' E 104°04'0 0.0
2018-Jun-10 23:00N 01°19' E 104°04'0 0.0
2018-Jun-10 22:30N 01°19' E 104°04'0 0.1
2018-Jun-10 22:00N 01°19' E 104°04'0 0.1
2018-Jun-10 21:30N 01°19' E 104°04'0 0.0
2018-Jun-10 20:59N 01°19' E 104°04'0 0.0
2018-Jun-10 20:30N 01°19' E 104°04'0 0.0
2018-Jun-10 20:00N 01°19' E 104°04'0 0.1
2018-Jun-10 19:19N 01°19' E 104°04'0 0.0
2018-Jun-10 19:00N 01°19' E 104°04'0 0.0
2018-Jun-10 18:30N 01°19' E 104°04'0 0.0
2018-Jun-10 17:59N 01°19' E 104°04'0 0.0
2018-Jun-10 17:30N 01°19' E 104°04'0 0.0
2018-Jun-10 17:00N 01°19' E 104°04'0 0.1
2018-Jun-10 16:31N 01°19' E 104°04'0 0.0
2018-Jun-10 16:00N 01°19' E 104°04'0 0.0
2018-Jun-10 15:28N 01°19' E 104°04'0 0.2
2018-Jun-10 15:00N 01°19' E 104°04'0 0.1
2018-Jun-10 14:00N 01°19' E 104°04'0 0.1
2018-Jun-10 13:30N 01°19' E 104°04'0 0.2
2018-Jun-10 13:00N 01°19' E 104°04'0 0.1
2018-Jun-10 12:28N 01°19' E 104°04'0 0.1
2018-Jun-10 12:00N 01°19' E 104°04'0 0.1
2018-Jun-10 11:30N 01°19' E 104°04'0 0.0
2018-Jun-10 11:00N 01°19' E 104°04'0 0.2
2018-Jun-10 10:30N 01°19' E 104°04'0 0.1
2018-Jun-10 10:00N 01°19' E 104°04'0 0.0
2018-Jun-10 09:27N 01°19' E 104°04'0 0.0
2018-Jun-10 08:55N 01°19' E 104°04'0 0.0
2018-Jun-10 08:30N 01°19' E 104°04'0 0.0
2018-Jun-10 08:00N 01°19' E 104°04'0 0.0
2018-Jun-10 07:27N 01°19' E 104°04'0 0.0
2018-Jun-10 07:00N 01°19' E 104°04'0 0.5
2018-Jun-10 06:30N 01°19' E 104°04'1 1.9
2018-Jun-10 06:00N 01°19' E 104°05'2 4.0
2018-Jun-10 05:30N 01°17' E 104°07'2 3.0
2018-Jun-10 04:59N 01°17' E 104°08'4 7.3
2018-Jun-10 04:31N 01°17' E 104°12'5 9.5
2018-Jun-10 03:59N 01°18' E 104°17'5 9.3
2018-Jun-10 03:30N 01°20' E 104°21'5 9.2
2018-Jun-10 03:00N 01°23' E 104°24'510.3
2018-Jun-10 02:29N 01°26' E 104°28'1710.1
2018-Jun-10 00:47N 01°40' E 104°39'3 9.9
2018-Jun-10 00:30N 01°42' E 104°40'710.0
2018-Jun-09 23:45N 01°49' E 104°44'3 9.8
2018-Jun-09 23:27N 01°52' E 104°45'4 9.1
2018-Jun-09 22:59N 01°55' E 104°47'5 9.9
2018-Jun-09 22:28N 02°00' E 104°49'5 9.9
2018-Jun-09 22:00N 02°04' E 104°51'6 9.4
2018-Jun-09 21:23N 02°09' E 104°54'4 9.7
2018-Jun-09 20:59N 02°13' E 104°54'610.2
2018-Jun-09 20:24N 02°19' E 104°55'5 9.4
2018-Jun-09 19:54N 02°24' E 104°56'5 9.9
2018-Jun-09 19:22N 02°29' E 104°58'  

Dump ship's entire track history